Manakin Sabot, Virginia
Current Conditions -  °F | °C
As of 9:54 PM on Monday 22 Dec 2014 (Local Time) from KOFP Reporting Station
Haze Haze  
Wind Chill: 31°   Ceiling: 300
Heat Index: 35°   Visibility: 2mi
Dew Point: 34°   Wind: 5mph
Humidity: 96%   Direction: 350°N
Pressure: 30.09"   Gusts: NA
Location:  37.65°N, 77.72°W
Report Text: KOFP 230254Z AUTO 35004KT 2SM BR OVC003 02/01 A3009 RMK AO2 SLP190 60000 T00170011 58014
Loading
Personal Weather Stations






























Interactive Weather Map New forecast layout! Learn more

10-Day Weather Forecast

Advertisements
Track Severe Weather on mobile